Time;durP1;ratioP1;P1;durP2;ratioP2;P2;SDS_P1;SDS_P2;PMS_P1;PMS_P2;Temp;Humidity;BMP_temperature;BMP_pressure;BME280_temperature;BME280_humidity;BME280_pressure;Samples;Min_cycle;Max_cycle;Signal;HPM_P1;HPM_P2
2021/09/05 00:00:05;;;;;;;30.30;24.60;;;13.30;99.90;;;;;;6187450;23;20721;-56
2021/09/05 00:02:32;;;;;;;35.40;27.40;;;13.20;99.90;;;;;;6187605;23;20457;-55
2021/09/05 00:04:59;;;;;;;29.80;23.50;;;13.20;99.90;;;;;;6187761;23;20497;-53
2021/09/05 00:07:26;;;;;;;30.10;24.50;;;13.20;99.90;;;;;;6187800;23;20419;-57
2021/09/05 00:09:56;;;;;;;30.23;23.33;;;13.20;99.90;;;;;;6187475;23;20415;-56
2021/09/05 00:12:23;;;;;;;31.37;25.80;;;13.20;1.00;;;;;;6187319;23;20849;-57
2021/09/05 00:14:53;;;;;;;31.57;27.90;;;13.20;1.00;;;;;;6186915;23;20424;-57
2021/09/05 00:17:20;;;;;;;31.27;26.30;;;13.10;1.00;;;;;;6187662;23;20716;-57
2021/09/05 00:19:46;;;;;;;33.60;25.73;;;13.10;42.80;;;;;;6187884;23;20419;-57
2021/09/05 00:22:14;;;;;;;32.10;24.93;;;13.10;99.90;;;;;;6187348;23;20420;-56
2021/09/05 00:24:41;;;;;;;32.30;26.43;;;13.10;99.90;;;;;;6187603;23;20446;-57
2021/09/05 00:27:08;;;;;;;31.87;24.47;;;13.00;99.90;;;;;;6187526;23;20424;-56
2021/09/05 00:29:37;;;;;;;31.17;26.53;;;13.00;99.90;;;;;;6187795;23;20416;-57
2021/09/05 00:32:06;;;;;;;34.23;24.50;;;13.00;99.90;;;;;;6187785;23;20855;-57
2021/09/05 00:34:33;;;;;;;36.93;24.00;;;13.00;99.90;;;;;;6187997;23;20579;-57
2021/09/05 00:37:00;;;;;;;30.57;23.80;;;12.90;99.90;;;;;;6187387;23;20420;-55
2021/09/05 00:39:27;;;;;;;32.57;25.43;;;12.90;99.90;;;;;;6187523;23;20748;-57
2021/09/05 00:41:53;;;;;;;30.37;25.00;;;12.90;41.80;;;;;;6187381;23;20428;-58
2021/09/05 00:44:20;;;;;;;34.87;25.30;;;12.90;99.90;;;;;;6187253;23;20426;-58
2021/09/05 00:46:47;;;;;;;31.57;24.20;;;12.90;1.00;;;;;;6188176;23;20427;-58
2021/09/05 00:49:16;;;;;;;30.83;25.63;;;12.90;1.00;;;;;;6189599;23;20427;-58
2021/09/05 00:51:44;;;;;;;32.67;26.50;;;12.90;99.90;;;;;;6189433;23;20424;-58
2021/09/05 00:54:14;;;;;;;33.10;27.03;;;12.90;1.00;;;;;;6189359;23;20685;-58
2021/09/05 00:56:43;;;;;;;30.03;24.10;;;12.90;1.00;;;;;;6189336;23;20505;-58
2021/09/05 01:34:27;;;;;;;23.73;20.33;;;12.60;99.90;;;;;;6188537;23;20498;-59
2021/09/05 01:36:55;;;;;;;26.50;19.97;;;12.60;99.90;;;;;;6189299;23;20393;-59
2021/09/05 02:13:03;;;;;;;23.93;19.73;;;12.20;99.90;;;;;;6184185;23;20455;-58
2021/09/05 02:15:30;;;;;;;23.83;19.07;;;12.20;99.90;;;;;;6189060;23;20867;-58
2021/09/05 02:17:57;;;;;;;28.20;20.87;;;12.20;98.70;;;;;;6188911;23;20454;-59
2021/09/05 02:20:24;;;;;;;28.70;22.20;;;12.20;99.90;;;;;;6188730;23;20427;-59
2021/09/05 02:57:21;;;;;;;22.40;18.07;;;11.90;75.20;;;;;;6183589;23;20455;-60
2021/09/05 02:59:48;;;;;;;22.80;18.70;;;11.80;99.90;;;;;;6188665;23;20459;-61
2021/09/05 03:02:15;;;;;;;22.57;16.83;;;11.80;99.90;;;;;;6188568;23;20729;-61
2021/09/05 03:04:42;;;;;;;26.83;17.43;;;11.80;99.90;;;;;;6188587;23;20493;-61
2021/09/05 03:07:09;;;;;;;23.20;18.30;;;11.70;99.90;;;;;;6188243;23;20420;-61
2021/09/05 04:17:44;;;;;;;17.73;15.70;;;11.20;99.90;;;;;;6183190;23;20463;-60
2021/09/05 04:20:14;;;;;;;17.40;15.50;;;11.20;99.90;;;;;;6187692;23;20875;-60
2021/09/05 04:22:41;;;;;;;24.40;16.40;;;11.20;99.90;;;;;;6187905;23;20717;-60
2021/09/05 04:25:09;;;;;;;32.80;17.07;;;11.20;99.90;;;;;;6187210;23;20420;-60
2021/09/05 04:27:37;;;;;;;20.90;17.83;;;11.10;99.90;;;;;;6187739;23;20427;-60
2021/09/05 04:30:05;;;;;;;19.00;15.60;;;11.10;99.90;;;;;;6187385;23;20865;-61
2021/09/05 04:32:32;;;;;;;19.40;15.70;;;11.10;99.90;;;;;;6188288;23;20422;-61
2021/09/05 04:35:01;;;;;;;20.50;15.87;;;11.10;99.90;;;;;;6187917;23;20419;-61
2021/09/05 04:37:28;;;;;;;23.83;16.10;;;11.10;99.90;;;;;;6187756;23;20466;-61
2021/09/05 04:39:55;;;;;;;18.97;16.60;;;11.10;99.90;;;;;;6187674;23;20458;-61
2021/09/05 04:42:22;;;;;;;20.27;15.83;;;11.10;99.90;;;;;;6187886;23;20420;-61
2021/09/05 04:44:52;;;;;;;18.70;16.33;;;11.00;99.90;;;;;;6187754;23;20852;-61
2021/09/05 04:47:20;;;;;;;20.17;16.63;;;11.00;99.90;;;;;;6187606;23;20424;-61
2021/09/05 04:49:47;;;;;;;19.50;16.80;;;11.10;99.90;;;;;;6187445;23;20386;-61
2021/09/05 04:52:16;;;;;;;18.40;16.30;;;11.10;99.90;;;;;;6187800;23;20424;-61
2021/09/05 04:54:43;;;;;;;19.43;16.10;;;11.10;99.90;;;;;;6187679;23;20426;-61
2021/09/05 04:57:10;;;;;;;24.67;18.07;;;11.10;99.90;;;;;;6187154;23;20451;-61
2021/09/05 04:59:37;;;;;;;21.17;16.37;;;11.10;99.90;;;;;;6187153;23;20452;-61
2021/09/05 05:02:04;;;;;;;20.97;16.20;;;11.10;99.90;;;;;;6187554;23;20422;-61
2021/09/05 05:04:32;;;;;;;19.77;16.17;;;11.10;99.90;;;;;;6188176;23;20416;-61
2021/09/05 05:06:59;;;;;;;20.80;16.33;;;11.20;99.90;;;;;;6187839;23;20840;-61
2021/09/05 05:09:27;;;;;;;19.67;16.47;;;11.20;99.90;;;;;;6187134;23;20411;-60
2021/09/05 05:11:54;;;;;;;18.17;16.23;;;11.20;99.90;;;;;;6188139;23;20416;-60
2021/09/05 05:14:21;;;;;;;20.30;15.47;;;11.30;99.90;;;;;;6187617;23;20424;-60
2021/09/05 05:16:48;;;;;;;21.33;18.17;;;11.30;99.90;;;;;;6194460;23;20443;-60
2021/09/05 05:19:14;;;;;;;19.77;16.10;;;11.30;99.90;;;;;;6217233;23;20451;-60
2021/09/05 05:21:42;;;;;;;19.97;16.37;;;11.30;99.90;;;;;;6217631;23;20477;-60
2021/09/05 05:24:09;;;;;;;21.80;16.00;;;11.30;99.90;;;;;;6217477;23;20530;-60
2021/09/05 05:26:37;;;;;;;20.10;16.63;;;11.30;99.90;;;;;;6218053;23;20419;-60
2021/09/05 05:29:04;;;;;;;20.00;16.67;;;11.40;99.90;;;;;;6217847;23;20434;-60
2021/09/05 05:31:31;;;;;;;20.13;16.97;;;11.40;99.90;;;;;;6216976;23;20734;-60
2021/09/05 06:08:01;;;;;;;24.57;20.93;;;12.50;99.90;;;;;;6202601;23;20458;-60
2021/09/05 06:10:28;;;;;;;23.57;17.97;;;12.70;99.90;;;;;;6219186;23;20415;-60
2021/09/05 06:12:55;;;;;;;27.00;19.83;;;12.90;99.90;;;;;;6219383;23;20418;-60
2021/09/05 06:15:22;;;;;;;24.00;20.10;;;13.00;99.90;;;;;;6218561;23;20469;-60
2021/09/05 06:17:52;;;;;;;24.50;21.30;;;13.10;99.90;;;;;;6218806;23;20415;-60
2021/09/05 06:20:19;;;;;;;25.27;21.73;;;13.20;1.00;;;;;;6219236;23;20453;-61
2021/09/05 06:22:46;;;;;;;27.70;20.33;;;13.30;99.90;;;;;;6218634;23;20910;-61
2021/09/05 06:25:14;;;;;;;29.33;23.13;;;13.30;1.00;;;;;;6217777;23;20419;-61
2021/09/05 06:27:41;;;;;;;34.93;24.27;;;13.50;99.90;;;;;;6218199;23;20426;-61
2021/09/05 06:30:09;;;;;;;29.00;23.63;;;13.60;99.90;;;;;;6218780;23;20415;-60
2021/09/05 06:32:41;;;;;;;24.77;19.90;;;13.90;99.90;;;;;;6218582;23;20415;-61
2021/09/05 06:35:11;;;;;;;26.37;22.17;;;14.10;99.90;;;;;;6217160;23;20426;-61
2021/09/05 06:37:40;;;;;;;27.37;21.40;;;14.40;1.00;;;;;;6217962;23;20473;-61
2021/09/05 06:40:10;;;;;;;24.97;21.30;;;14.70;18.60;;;;;;6218404;23;20486;-60
2021/09/05 06:42:38;;;;;;;24.30;20.57;;;14.80;1.00;;;;;;6218446;23;20694;-60
2021/09/05 06:45:06;;;;;;;22.13;19.00;;;14.90;99.90;;;;;;6218604;23;20836;-60
2021/09/05 06:47:35;;;;;;;25.77;20.70;;;15.10;99.90;;;;;;6218030;23;20419;-60
2021/09/05 06:50:04;;;;;;;21.97;18.60;;;15.40;99.90;;;;;;6218257;23;20426;-60
2021/09/05 06:52:33;;;;;;;21.90;19.50;;;15.60;28.80;;;;;;6218631;23;20699;-60
2021/09/05 06:54:59;;;;;;;22.17;18.80;;;15.80;1.00;;;;;;6217701;23;20422;-60
2021/09/05 06:57:26;;;;;;;21.90;19.00;;;16.00;1.00;;;;;;6218060;23;20419;-60
2021/09/05 06:59:59;;;;;;;26.10;20.20;;;16.30;1.00;;;;;;6218336;23;20450;-59
2021/09/05 07:02:26;;;;;;;22.30;19.60;;;16.20;1.00;;;;;;6218519;23;20955;-59
2021/09/05 07:04:55;;;;;;;24.13;20.20;;;16.60;1.00;;;;;;6217907;23;20423;-59
2021/09/05 07:07:21;;;;;;;20.90;18.70;;;16.90;1.00;;;;;;6217979;23;20438;-59
2021/09/05 07:09:49;;;;;;;22.77;18.07;;;17.00;1.00;;;;;;6217950;23;20419;-59
2021/09/05 07:12:17;;;;;;;20.43;18.43;;;17.30;1.00;;;;;;6218363;23;20423;-59
2021/09/05 07:14:44;;;;;;;21.00;18.80;;;17.50;1.00;;;;;;6218803;23;20419;-59
2021/09/05 07:17:14;;;;;;;22.03;18.80;;;17.60;1.00;;;;;;6217884;23;20423;-59
2021/09/05 07:19:43;;;;;;;21.10;18.90;;;17.90;1.00;;;;;;6217703;23;20503;-58
2021/09/05 07:22:10;;;;;;;22.80;19.47;;;18.10;1.00;;;;;;6218191;23;20419;-58
2021/09/05 07:24:38;;;;;;;21.00;18.83;;;18.30;1.00;;;;;;6218392;23;20883;-58
2021/09/05 07:27:09;;;;;;;19.70;17.80;;;18.50;1.00;;;;;;6218619;23;20422;-58
2021/09/05 07:29:36;;;;;;;17.60;15.93;;;18.60;1.00;;;;;;6215942;23;20418;-58
2021/09/05 07:32:04;;;;;;;19.17;17.27;;;18.90;1.00;;;;;;6218079;23;20469;-57
2021/09/05 07:34:34;;;;;;;20.53;18.40;;;19.10;1.00;;;;;;6217588;23;20419;-57
2021/09/05 07:37:01;;;;;;;19.50;17.43;;;19.30;1.00;;;;;;6218462;23;20422;-57
2021/09/05 07:39:27;;;;;;;18.87;16.87;;;19.60;1.00;;;;;;6217632;23;20486;-56
2021/09/05 07:41:56;;;;;;;18.30;16.37;;;19.80;1.00;;;;;;6217986;23;20473;-56
2021/09/05 07:44:26;;;;;;;18.07;16.33;;;19.90;1.00;;;;;;6218320;23;20421;-57
2021/09/05 07:46:58;;;;;;;18.00;16.10;;;20.10;1.00;;;;;;6217583;23;20419;-57
2021/09/05 07:49:25;;;;;;;18.50;16.70;;;20.20;1.00;;;;;;6217663;23;20717;-55
2021/09/05 07:51:55;;;;;;;18.83;16.90;;;20.40;1.00;;;;;;6218238;23;20414;-57
2021/09/05 07:54:25;;;;;;;20.40;17.13;;;20.70;1.00;;;;;;6218171;23;20442;-54
2021/09/05 07:56:52;;;;;;;21.00;18.80;;;21.00;1.00;;;;;;6217986;23;20426;-57
2021/09/05 07:59:18;;;;;;;19.67;17.60;;;21.20;1.00;;;;;;6217389;23;20451;-53
2021/09/05 08:01:45;;;;;;;19.27;17.20;;;21.50;1.00;;;;;;6218182;23;20415;-56
2021/09/05 08:04:12;;;;;;;17.67;16.07;;;21.70;1.00;;;;;;6218279;23;20823;-55
2021/09/05 08:06:39;;;;;;;19.13;17.23;;;21.80;1.00;;;;;;6217930;23;20488;-56
2021/09/05 08:09:08;;;;;;;17.03;15.33;;;22.10;1.00;;;;;;6218513;23;20422;-56
2021/09/05 08:11:35;;;;;;;18.07;16.37;;;22.40;1.00;;;;;;6217953;23;20422;-55
2021/09/05 08:14:02;;;;;;;18.87;16.90;;;22.60;1.00;;;;;;6218005;23;20427;-55
2021/09/05 08:16:29;;;;;;;17.93;16.23;;;23.00;1.00;;;;;;6218168;23;20843;-53
2021/09/05 08:18:59;;;;;;;16.83;15.23;;;23.20;1.00;;;;;;6218155;23;20419;-55
2021/09/05 08:21:27;;;;;;;16.90;15.27;;;23.40;1.00;;;;;;6217457;23;20735;-56
2021/09/05 08:23:55;;;;;;;17.13;15.47;;;23.70;99.90;;;;;;6218069;23;20685;-56
2021/09/05 08:26:33;;;;;;;15.33;13.83;;;23.90;99.90;;;;;;6217876;23;20415;-53
2021/09/05 08:29:01;;;;;;;16.50;14.90;;;23.60;99.90;;;;;;6217589;23;20437;-54
2021/09/05 08:31:28;;;;;;;15.83;14.17;;;23.60;99.90;;;;;;6217480;23;20875;-56
2021/09/05 08:33:57;;;;;;;15.60;14.13;;;23.80;99.90;;;;;;6217500;23;20419;-56
2021/09/05 08:36:31;;;;;;;16.37;14.87;;;24.40;99.90;;;;;;6217304;23;20426;-52
2021/09/05 08:39:21;;;;;;;17.90;15.57;;;24.70;99.90;;;;;;6217989;23;20474;-55
2021/09/05 08:41:56;;;;;;;16.10;14.57;;;24.80;99.90;;;;;;6217954;23;20419;-53
2021/09/05 08:44:24;;;;;;;16.20;14.70;;;25.00;99.90;;;;;;6217230;23;20425;-56
2021/09/05 08:46:52;;;;;;;16.20;14.63;;;25.20;99.90;;;;;;6217985;23;20423;-51
2021/09/05 09:23:11;;;;;;;16.60;15.20;;;27.20;99.90;;;;;;6205616;22;20426;-56
2021/09/05 09:25:39;;;;;;;15.30;14.03;;;27.40;99.90;;;;;;6188576;23;20411;-54
2021/09/05 09:28:29;;;;;;;14.73;13.37;;;27.50;99.90;;;;;;6189714;23;20412;-56
2021/09/05 10:05:24;;;;;;;14.30;13.00;;;28.60;99.90;;;;;;6188139;22;20455;-57
2021/09/05 10:07:53;;;;;;;13.20;12.10;;;28.80;99.90;;;;;;6188860;23;20723;-57
2021/09/05 10:10:24;;;;;;;18.20;13.80;;;28.50;99.90;;;;;;6188835;23;20455;-55
2021/09/05 10:12:56;;;;;;;15.40;14.03;;;28.70;99.90;;;;;;6188945;23;20420;-57
2021/09/05 10:15:23;;;;;;;13.87;12.67;;;27.60;99.90;;;;;;6188842;23;20427;-56
2021/09/05 10:17:51;;;;;;;14.73;13.50;;;27.50;99.90;;;;;;6188484;23;20419;-59
2021/09/05 10:20:20;;;;;;;14.93;13.60;;;28.10;99.90;;;;;;6188122;23;20447;-58
2021/09/05 10:22:52;;;;;;;14.27;13.07;;;28.70;99.90;;;;;;6188700;23;20416;-58
2021/09/05 10:25:21;;;;;;;13.47;12.27;;;29.20;99.90;;;;;;6188501;23;20419;-56
2021/09/05 10:27:51;;;;;;;14.90;13.50;;;29.50;99.90;;;;;;6188593;23;20422;-57
2021/09/05 10:30:24;;;;;;;14.13;12.90;;;29.70;99.90;;;;;;6188246;23;20423;-58
2021/09/05 10:32:53;;;;;;;13.87;12.57;;;29.90;99.90;;;;;;6187972;23;20420;-57
2021/09/05 10:35:48;;;;;;;13.63;12.33;;;30.20;99.90;;;;;;6188406;23;20419;-59
2021/09/05 10:38:32;;;;;;;13.37;12.27;;;30.00;99.90;;;;;;6188588;23;20419;-54
2021/09/05 10:41:01;;;;;;;13.73;12.70;;;30.50;99.90;;;;;;6188015;23;20494;-58
2021/09/05 10:44:08;;;;;;;14.17;12.73;;;30.30;99.90;;;;;;6188499;23;20428;-54
2021/09/05 10:46:42;;;;;;;14.80;13.40;;;30.30;99.90;;;;;;6176418;23;20427;-58
2021/09/05 10:49:09;;;;;;;13.90;12.73;;;30.60;99.90;;;;;;6187188;23;20400;-57
2021/09/05 10:51:46;;;;;;;15.27;13.97;;;30.30;99.90;;;;;;6187149;23;20439;-59
2021/09/05 10:54:23;;;;;;;15.47;14.20;;;29.60;99.90;;;;;;6185699;23;20725;-54
2021/09/05 10:56:50;;;;;;;13.00;11.83;;;29.10;99.90;;;;;;6187516;23;20510;-59
2021/09/05 10:59:19;;;;;;;13.23;12.10;;;29.30;99.90;;;;;;6187666;23;20411;-56
2021/09/05 11:02:00;;;;;;;13.80;12.70;;;29.90;99.90;;;;;;6186819;23;20412;-54
2021/09/05 11:04:44;;;;;;;15.17;13.87;;;29.70;99.90;;;;;;6186482;23;20517;-59
2021/09/05 11:07:32;;;;;;;14.17;13.07;;;30.50;99.90;;;;;;6185201;23;20710;-58
2021/09/05 11:10:01;;;;;;;13.00;12.00;;;30.60;99.90;;;;;;6187148;23;20854;-58
2021/09/05 11:46:51;;;;;;;14.53;13.37;;;30.30;99.90;;;;;;6207091;22;20457;-58
2021/09/05 11:49:21;;;;;;;14.63;13.43;;;30.40;99.90;;;;;;6217160;23;20715;-57
2021/09/05 11:52:01;;;;;;;15.03;13.80;;;30.50;99.90;;;;;;6215443;23;20851;-54
2021/09/05 11:54:31;;;;;;;13.70;12.60;;;30.90;99.90;;;;;;6217262;23;20425;-54
2021/09/05 11:56:58;;;;;;;13.67;12.57;;;30.80;99.90;;;;;;6217835;23;20910;-54
2021/09/05 11:59:25;;;;;;;14.57;13.47;;;30.40;99.90;;;;;;6217540;23;20457;-55
2021/09/05 12:01:54;;;;;;;13.80;12.60;;;30.50;99.90;;;;;;6216914;23;20450;-57
2021/09/05 12:04:21;;;;;;;14.80;13.60;;;30.40;99.90;;;;;;6216437;23;20418;-53
2021/09/05 12:06:51;;;;;;;14.30;13.03;;;30.80;99.90;;;;;;6217257;23;20855;-56
2021/09/05 12:09:29;;;;;;;14.50;13.37;;;30.60;99.90;;;;;;6217441;23;20473;-56
2021/09/05 12:45:40;;;;;;;15.43;14.13;;;29.60;99.90;;;;;;6214351;23;20489;-52
2021/09/05 12:48:18;;;;;;;15.67;14.17;;;29.40;99.90;;;;;;6218713;23;20427;-51
2021/09/05 12:50:46;;;;;;;15.50;14.10;;;29.90;99.90;;;;;;6219313;23;20419;-51
2021/09/05 12:53:16;;;;;;;14.20;13.00;;;29.50;99.90;;;;;;6218394;23;20418;-53
2021/09/05 12:55:49;;;;;;;14.50;13.03;;;30.10;99.90;;;;;;6217967;23;20423;-52
2021/09/05 12:58:20;;;;;;;14.47;13.03;;;30.40;99.90;;;;;;6217993;23;20867;-56
2021/09/05 13:00:51;;;;;;;14.40;13.10;;;30.70;99.90;;;;;;6218496;23;20926;-55
2021/09/05 13:03:18;;;;;;;14.00;12.90;;;30.80;99.90;;;;;;6218687;23;20419;-53
2021/09/05 13:05:47;;;;;;;14.57;13.37;;;31.00;99.90;;;;;;6218689;23;20423;-55
2021/09/05 13:08:15;;;;;;;14.43;13.30;;;31.00;99.90;;;;;;6218094;23;20419;-51
2021/09/05 13:10:48;;;;;;;15.77;14.37;;;30.60;99.90;;;;;;6219065;23;20426;-53
2021/09/05 13:13:15;;;;;;;13.70;12.60;;;30.60;99.90;;;;;;6218847;23;20425;-54
2021/09/05 13:15:42;;;;;;;13.83;12.27;;;30.40;99.90;;;;;;6218023;23;20423;-58
2021/09/05 13:18:13;;;;;;;14.20;12.90;;;30.80;99.90;;;;;;6218065;23;20426;-53
2021/09/05 13:20:42;;;;;;;15.00;13.80;;;30.30;99.90;;;;;;6216592;23;20486;-58
2021/09/05 13:23:09;;;;;;;13.67;12.63;;;29.20;99.90;;;;;;6218383;23;20422;-54
2021/09/05 13:25:40;;;;;;;15.40;14.00;;;28.90;99.90;;;;;;6218349;23;20425;-53
2021/09/05 13:28:09;;;;;;;15.83;14.33;;;28.50;99.90;;;;;;6218691;23;20421;-54
2021/09/05 13:30:37;;;;;;;14.17;12.87;;;27.50;99.90;;;;;;6219079;23;20457;-57
2021/09/05 13:33:04;;;;;;;14.70;13.30;;;27.40;99.90;;;;;;6218697;23;20451;-58
2021/09/05 13:35:34;;;;;;;13.97;12.77;;;28.10;99.90;;;;;;6218474;23;20504;-56
2021/09/05 13:38:01;;;;;;;13.97;12.57;;;28.90;99.90;;;;;;6218602;23;20427;-55
2021/09/05 13:40:28;;;;;;;13.93;12.77;;;29.50;99.90;;;;;;6218591;23;20906;-55
2021/09/05 13:42:55;;;;;;;14.30;13.10;;;29.90;99.90;;;;;;6218104;23;20419;-54
2021/09/05 13:45:22;;;;;;;12.77;11.67;;;30.00;99.90;;;;;;6218435;23;20442;-52
2021/09/05 13:47:49;;;;;;;13.83;12.57;;;30.30;99.90;;;;;;6218101;23;20418;-55
2021/09/05 13:50:16;;;;;;;13.83;12.63;;;30.00;99.90;;;;;;6218673;23;20415;-54
2021/09/05 13:52:45;;;;;;;11.97;11.07;;;29.80;99.90;;;;;;6218635;23;20459;-54
2021/09/05 13:55:19;;;;;;;13.33;12.23;;;30.50;99.90;;;;;;6218220;23;20477;-51
2021/09/05 13:57:49;;;;;;;13.80;12.60;;;30.70;99.90;;;;;;6218450;23;20419;-52
2021/09/05 14:00:19;;;;;;;13.43;12.33;;;30.70;99.90;;;;;;6218025;23;20418;-54
2021/09/05 14:02:50;;;;;;;13.03;11.93;;;30.80;99.90;;;;;;6218501;23;20419;-58
2021/09/05 14:05:20;;;;;;;13.70;12.30;;;30.40;99.90;;;;;;6218723;23;20418;-57
2021/09/05 14:07:56;;;;;;;12.97;11.87;;;30.10;99.90;;;;;;6217633;23;20433;-50
2021/09/05 14:10:26;;;;;;;12.80;11.70;;;30.00;99.90;;;;;;6216998;23;20442;-51
2021/09/05 14:12:53;;;;;;;13.77;12.67;;;29.90;99.90;;;;;;6218268;23;20462;-51
2021/09/05 14:15:27;;;;;;;13.60;12.20;;;28.60;99.90;;;;;;6218805;23;20450;-54
2021/09/05 14:17:57;;;;;;;14.63;13.40;;;28.00;99.90;;;;;;6218426;23;20453;-55
2021/09/05 14:20:24;;;;;;;12.23;11.23;;;27.80;99.90;;;;;;6218207;23;20482;-53
2021/09/05 14:22:54;;;;;;;13.00;11.80;;;27.30;99.90;;;;;;6218423;23;20426;-58
2021/09/05 14:25:22;;;;;;;12.20;11.00;;;27.90;99.90;;;;;;6217189;23;20426;-57
2021/09/05 14:27:53;;;;;;;12.57;11.57;;;28.40;99.90;;;;;;6215594;23;20477;-57
2021/09/05 14:30:30;;;;;;;13.33;12.23;;;28.60;99.90;;;;;;6216685;23;20423;-57
2021/09/05 14:33:11;;;;;;;12.83;11.83;;;28.90;99.90;;;;;;6217406;23;20473;-50
2021/09/05 14:49:32;;;;;;;12.23;11.13;;;28.30;99.90;;;;;;6215166;23;20506;-56
2021/09/05 14:54:59;;;;;;;13.13;12.03;;;29.00;99.90;;;;;;6135312;23;20872;-51
2021/09/05 14:57:29;;;;;;;12.77;11.67;;;29.00;99.90;;;;;;6217632;23;20425;-56
2021/09/05 14:59:57;;;;;;;12.67;11.47;;;28.40;99.90;;;;;;6217722;23;20753;-53
2021/09/05 15:02:30;;;;;;;12.40;11.30;;;28.20;99.90;;;;;;6217127;23;20455;-54
2021/09/05 15:05:27;;;;;;;13.40;12.03;;;28.00;99.90;;;;;;6218135;23;20426;-56
2021/09/05 15:11:00;;;;;;;17.20;11.90;;;28.00;99.90;;;;;;6216673;23;20406;-58
2021/09/05 15:13:34;;;;;;;12.80;11.70;;;28.30;99.90;;;;;;6216042;23;20422;-58
2021/09/05 15:16:04;;;;;;;14.17;12.90;;;27.60;99.90;;;;;;6217569;23;20415;-55
2021/09/05 15:18:34;;;;;;;13.60;12.50;;;28.00;99.90;;;;;;6217587;23;20456;-55
2021/09/05 15:21:02;;;;;;;12.33;11.00;;;28.20;99.90;;;;;;6217661;23;20451;-56
2021/09/05 15:23:31;;;;;;;14.00;12.67;;;28.10;99.90;;;;;;6217521;23;20446;-54
2021/09/05 15:25:59;;;;;;;12.53;11.53;;;28.40;99.90;;;;;;6217069;23;20532;-55
2021/09/05 15:28:29;;;;;;;12.47;11.27;;;28.40;99.90;;;;;;6215784;23;20482;-56
2021/09/05 15:31:00;;;;;;;13.17;11.97;;;28.20;99.90;;;;;;6216870;23;20878;-55
2021/09/05 15:33:40;;;;;;;13.60;12.40;;;28.00;99.90;;;;;;6217446;23;20470;-54
2021/09/05 15:36:26;;;;;;;14.43;12.03;;;28.00;99.90;;;;;;6216050;23;20847;-56
2021/09/05 16:16:50;;;;;;;14.37;12.93;;;26.80;99.90;;;;;;6127077;23;20443;-56
2021/09/05 16:19:19;;;;;;;13.33;12.07;;;26.70;99.90;;;;;;6127316;23;20476;-52
2021/09/05 16:21:46;;;;;;;15.03;13.67;;;26.50;99.90;;;;;;6128115;23;20453;-51
2021/09/05 16:24:18;;;;;;;15.63;12.23;;;26.50;99.90;;;;;;6128738;23;20414;-54
2021/09/05 16:26:47;;;;;;;15.63;12.40;;;26.50;99.90;;;;;;6128248;23;20421;-54
2021/09/05 16:29:27;;;;;;;14.63;13.43;;;26.40;99.90;;;;;;6126893;23;20433;-54
2021/09/05 16:31:57;;;;;;;13.10;12.00;;;26.20;99.90;;;;;;6128533;23;20424;-53
2021/09/05 16:34:34;;;;;;;14.23;12.93;;;26.20;99.90;;;;;;6128194;23;20453;-52
2021/09/05 16:37:13;;;;;;;14.47;13.13;;;25.90;99.90;;;;;;6127646;23;20867;-51
2021/09/05 16:42:26;;;;;;;15.77;13.50;;;25.70;99.90;;;;;;6126904;23;20945;-53
2021/09/05 16:44:53;;;;;;;15.03;13.63;;;25.60;99.90;;;;;;6127875;23;20461;-51
2021/09/05 16:47:21;;;;;;;16.60;14.93;;;25.30;99.90;;;;;;6127253;23;20428;-51
2021/09/05 16:49:48;;;;;;;16.00;14.30;;;25.20;99.90;;;;;;6127949;23;20421;-51
2021/09/05 16:52:16;;;;;;;16.53;14.93;;;25.10;99.90;;;;;;6127853;23;20450;-57
2021/09/05 17:30:40;;;;;;;17.47;15.87;;;23.00;99.90;;;;;;6215759;23;20455;-54
2021/09/05 17:33:09;;;;;;;15.80;14.30;;;22.90;99.90;;;;;;6218980;23;20693;-53
2021/09/05 17:35:35;;;;;;;16.93;15.30;;;22.70;99.90;;;;;;6217964;23;20414;-53
2021/09/05 17:38:03;;;;;;;16.67;14.97;;;22.60;99.90;;;;;;6219019;23;20415;-55
2021/09/05 17:40:32;;;;;;;17.37;15.73;;;22.60;99.90;;;;;;6218448;23;20770;-52
2021/09/05 17:43:02;;;;;;;17.37;15.67;;;22.50;99.90;;;;;;6219006;23;20450;-54
2021/09/05 17:45:33;;;;;;;18.20;16.50;;;22.40;99.90;;;;;;6218493;23;20422;-50
2021/09/05 17:48:02;;;;;;;17.47;15.77;;;22.20;99.90;;;;;;6218658;23;20430;-54
2021/09/05 17:50:29;;;;;;;17.70;16.10;;;22.10;99.90;;;;;;6219341;23;20415;-53
2021/09/05 17:52:56;;;;;;;17.43;15.83;;;21.90;99.90;;;;;;6219397;23;20458;-50
2021/09/05 17:55:23;;;;;;;18.90;15.67;;;21.80;99.90;;;;;;6217881;23;20850;-54
2021/09/05 17:57:52;;;;;;;18.27;16.10;;;21.70;99.90;;;;;;6218542;23;20455;-57
2021/09/05 18:00:19;;;;;;;18.00;16.30;;;21.60;99.90;;;;;;6218715;23;20719;-57
2021/09/05 18:02:51;;;;;;;19.97;18.07;;;21.60;99.90;;;;;;6218777;23;20451;-57
2021/09/05 18:05:20;;;;;;;18.53;16.73;;;21.60;99.90;;;;;;6218886;23;20529;-55
2021/09/05 18:07:46;;;;;;;19.10;17.33;;;21.40;99.90;;;;;;6217476;23;20450;-55
2021/09/05 18:10:16;;;;;;;18.70;16.80;;;21.20;99.90;;;;;;6218476;23;20426;-56
2021/09/05 18:12:45;;;;;;;19.33;17.30;;;21.10;99.90;;;;;;6216115;23;20446;-52
2021/09/05 18:15:12;;;;;;;19.37;16.00;;;21.00;99.90;;;;;;6214268;23;20419;-57
2021/09/05 18:17:42;;;;;;;20.20;18.30;;;20.90;99.90;;;;;;6218498;23;20855;-54
2021/09/05 18:20:10;;;;;;;18.63;16.73;;;20.90;99.90;;;;;;6218372;23;20774;-54
2021/09/05 18:22:39;;;;;;;19.23;17.17;;;20.80;99.90;;;;;;6218684;23;20493;-50
2021/09/05 18:25:07;;;;;;;19.00;17.10;;;20.80;99.90;;;;;;6217461;23;21166;-53
2021/09/05 18:27:34;;;;;;;19.90;17.80;;;20.70;99.90;;;;;;6218803;23;20390;-56
2021/09/05 18:30:01;;;;;;;18.93;17.07;;;20.60;99.90;;;;;;6218229;23;20905;-51
2021/09/05 18:32:29;;;;;;;19.63;17.53;;;20.50;99.90;;;;;;6218630;23;20423;-51
2021/09/05 18:34:56;;;;;;;20.20;18.20;;;20.40;99.90;;;;;;6218524;23;20419;-50
2021/09/05 18:37:25;;;;;;;20.27;18.27;;;20.20;99.90;;;;;;6217858;23;20465;-50
2021/09/05 18:39:55;;;;;;;19.83;17.90;;;20.10;99.90;;;;;;6217377;23;20419;-52
2021/09/05 18:57:56;;;;;;;20.17;18.07;;;19.80;99.90;;;;;;6188226;22;20214;-51
2021/09/05 19:00:23;;;;;;;20.10;18.00;;;19.60;99.90;;;;;;6187702;23;20772;-49
2021/09/05 19:02:50;;;;;;;19.60;17.73;;;19.50;99.90;;;;;;6187981;23;20447;-49
2021/09/05 19:05:17;;;;;;;19.13;17.10;;;19.40;99.90;;;;;;6184774;23;20459;-46
2021/09/05 19:08:05;;;;;;;19.23;17.43;;;19.30;99.90;;;;;;6187908;23;20833;-50
2021/09/05 19:10:32;;;;;;;21.47;19.33;;;19.10;99.90;;;;;;6178824;23;20438;-52
2021/09/05 19:13:07;;;;;;;22.30;20.10;;;19.10;99.90;;;;;;6188285;23;20451;-45
2021/09/05 19:49:19;;;;;;;22.50;19.30;;;18.10;1.00;;;;;;6213275;22;20894;-51
2021/09/05 19:51:46;;;;;;;22.13;19.77;;;18.10;1.00;;;;;;6217662;23;20451;-48
2021/09/05 19:54:13;;;;;;;21.47;19.17;;;17.90;1.00;;;;;;6217881;23;20418;-50
2021/09/05 19:59:19;;;;;;;23.03;20.83;;;17.60;1.00;;;;;;6210590;22;20462;-51
2021/09/05 20:01:49;;;;;;;27.03;20.40;;;17.40;1.00;;;;;;6216124;23;20451;-51
2021/09/05 20:04:16;;;;;;;22.87;19.97;;;17.30;1.00;;;;;;6214513;23;20426;-49
2021/09/05 20:06:47;;;;;;;22.00;19.80;;;17.20;1.00;;;;;;6215099;23;20419;-47
2021/09/05 20:09:14;;;;;;;22.00;18.77;;;17.10;1.00;;;;;;6216597;23;20509;-48
2021/09/05 20:11:41;;;;;;;22.00;19.80;;;17.20;1.00;;;;;;6216210;23;20422;-52
2021/09/05 20:14:10;;;;;;;21.40;19.20;;;17.10;1.00;;;;;;6216375;23;20429;-52
2021/09/05 20:16:40;;;;;;;21.60;18.90;;;17.10;1.00;;;;;;6216187;23;20526;-49
2021/09/05 20:19:09;;;;;;;21.60;19.30;;;17.00;1.00;;;;;;6215873;23;20462;-49
2021/09/05 20:21:36;;;;;;;22.20;19.70;;;17.00;1.00;;;;;;6215653;23;20545;-52
2021/09/05 20:24:07;;;;;;;23.33;20.77;;;17.00;1.00;;;;;;6217046;23;20818;-53
2021/09/05 20:26:34;;;;;;;23.13;19.47;;;17.00;1.00;;;;;;6216471;23;20776;-53
2021/09/05 20:29:02;;;;;;;22.07;19.77;;;16.90;1.00;;;;;;6215484;23;20411;-50
2021/09/05 20:31:34;;;;;;;22.63;20.00;;;16.80;1.00;;;;;;6216257;23;20426;-50
2021/09/05 20:34:01;;;;;;;21.30;19.00;;;16.70;1.00;;;;;;6216755;23;20714;-51
2021/09/05 20:36:28;;;;;;;22.93;19.27;;;16.70;1.00;;;;;;6215057;23;20857;-50
2021/09/05 20:38:57;;;;;;;22.00;19.70;;;16.70;1.00;;;;;;6217336;23;20419;-52
2021/09/05 20:41:26;;;;;;;23.23;19.10;;;16.70;1.00;;;;;;6216601;23;20418;-52
2021/09/05 20:43:55;;;;;;;25.37;20.33;;;16.70;1.00;;;;;;6215947;23;20428;-51
2021/09/05 20:46:24;;;;;;;20.90;18.70;;;16.70;1.00;;;;;;6215747;23;20418;-51
2021/09/05 20:48:54;;;;;;;21.40;19.10;;;16.70;1.00;;;;;;6215668;23;20454;-50